createdAt,value
2022-12-24T00:00:06.157Z,86.28
2022-12-24T00:02:34.561Z,86.13
2022-12-24T00:05:02.456Z,86.15
2022-12-24T00:07:30.257Z,86.59
2022-12-24T00:09:57.937Z,85.77
2022-12-24T00:12:25.680Z,86.26
2022-12-24T00:14:54.052Z,86.30
2022-12-24T00:17:21.795Z,86.06
2022-12-24T00:19:49.549Z,86.13
2022-12-24T00:22:17.309Z,86.06
2022-12-24T00:24:44.970Z,86.36
2022-12-24T00:27:13.238Z,86.50
2022-12-24T00:29:41.107Z,86.64
2022-12-24T00:32:10.425Z,87.02
2022-12-24T00:34:38.144Z,86.51
2022-12-24T00:37:06.423Z,86.05
2022-12-24T00:39:34.359Z,86.15
2022-12-24T00:42:02.138Z,86.35
2022-12-24T00:44:30.020Z,86.73
2022-12-24T00:46:57.704Z,86.68
2022-12-24T00:49:25.338Z,87.14
2022-12-24T00:51:53.671Z,86.88
2022-12-24T00:54:21.382Z,86.33
2022-12-24T00:56:49.018Z,86.46
2022-12-24T00:59:17.203Z,86.60
2022-12-24T01:01:44.924Z,86.13
2022-12-24T01:04:30.594Z,86.38
2022-12-24T01:06:58.445Z,85.93
2022-12-24T01:09:26.115Z,85.81
2022-12-24T01:11:53.857Z,86.07
2022-12-24T01:14:21.826Z,85.90
2022-12-24T01:16:49.840Z,85.87
2022-12-24T01:19:17.712Z,85.82
2022-12-24T01:21:45.335Z,86.00
2022-12-24T01:24:13.111Z,85.58
2022-12-24T01:26:40.760Z,85.33
2022-12-24T01:29:08.706Z,85.82
2022-12-24T01:31:36.648Z,85.78
2022-12-24T01:34:04.352Z,85.71
2022-12-24T01:36:31.940Z,85.31
2022-12-24T01:38:59.538Z,85.69
2022-12-24T01:41:45.432Z,85.09
2022-12-24T01:44:13.247Z,85.57
2022-12-24T01:46:40.868Z,85.18
2022-12-24T01:49:08.617Z,84.98
2022-12-24T01:51:36.909Z,84.40
2022-12-24T01:54:04.577Z,85.10
2022-12-24T01:56:32.420Z,85.09
2022-12-24T01:59:00.032Z,84.34
2022-12-24T02:01:27.688Z,85.09
2022-12-24T02:03:55.921Z,85.00
2022-12-24T02:06:24.081Z,85.06
2022-12-24T02:08:52.112Z,85.03
2022-12-24T02:11:19.747Z,84.35
2022-12-24T02:13:47.344Z,84.64
2022-12-24T02:16:15.020Z,84.88
2022-12-24T02:18:43.072Z,84.64
2022-12-24T02:21:10.918Z,84.85
2022-12-24T02:23:38.544Z,84.41
2022-12-24T02:26:06.661Z,84.58
2022-12-24T02:28:34.281Z,85.25
2022-12-24T02:31:02.583Z,84.55
2022-12-24T02:33:30.544Z,84.67
2022-12-24T02:35:58.164Z,84.32
2022-12-24T02:38:25.932Z,84.46
2022-12-24T02:40:53.565Z,84.57
2022-12-24T02:43:21.558Z,84.58
2022-12-24T02:45:53.707Z,84.52
2022-12-24T02:48:24.591Z,83.78
2022-12-24T02:50:52.195Z,84.41
2022-12-24T02:53:19.789Z,84.48
2022-12-24T02:55:47.813Z,84.16
2022-12-24T02:58:15.613Z,84.33
2022-12-24T03:00:43.295Z,84.23
2022-12-24T03:03:10.965Z,84.07
2022-12-24T03:05:38.840Z,84.35
2022-12-24T03:08:07.254Z,84.60
2022-12-24T03:10:35.111Z,84.15
2022-12-24T03:13:02.772Z,84.09
2022-12-24T03:15:30.397Z,84.11
2022-12-24T03:17:58.131Z,84.06
2022-12-24T03:20:25.743Z,84.22
2022-12-24T03:22:53.355Z,84.51
2022-12-24T03:25:21.005Z,84.41
2022-12-24T03:27:48.609Z,84.74
2022-12-24T03:30:18.286Z,84.70
2022-12-24T03:32:46.303Z,84.72
2022-12-24T03:35:14.481Z,84.51
2022-12-24T03:37:42.066Z,84.49
2022-12-24T03:40:09.738Z,84.71
2022-12-24T03:42:37.311Z,84.36
2022-12-24T03:45:05.320Z,84.40
2022-12-24T03:47:33.143Z,84.24
2022-12-24T03:50:00.749Z,83.99
2022-12-24T03:52:28.453Z,84.02
2022-12-24T03:54:56.162Z,83.49
2022-12-24T03:57:24.150Z,83.84
2022-12-24T03:59:51.897Z,83.41
2022-12-24T04:02:19.634Z,83.64
2022-12-24T04:04:47.282Z,83.56
2022-12-24T04:07:14.877Z,83.23
2022-12-24T04:09:42.895Z,83.08
2022-12-24T04:12:12.252Z,83.40
2022-12-24T04:14:39.854Z,83.07
2022-12-24T04:17:07.487Z,83.26
2022-12-24T04:19:35.096Z,82.91
2022-12-24T04:22:03.074Z,82.83
2022-12-24T04:24:30.870Z,83.03
2022-12-24T04:26:58.471Z,83.11
2022-12-24T04:29:26.110Z,82.74
2022-12-24T04:31:53.796Z,83.38
2022-12-24T04:34:22.316Z,82.68
2022-12-24T04:36:49.950Z,83.28
2022-12-24T04:39:17.563Z,83.36
2022-12-24T04:41:45.200Z,83.73
2022-12-24T04:44:12.808Z,83.14
2022-12-24T04:46:41.618Z,83.56
2022-12-24T04:49:09.223Z,83.05
2022-12-24T04:51:36.786Z,83.25
2022-12-24T04:54:04.443Z,83.17
2022-12-24T04:56:32.581Z,83.45
2022-12-24T04:59:00.225Z,83.21
2022-12-24T05:01:28.235Z,83.38
2022-12-24T05:03:55.911Z,83.42
2022-12-24T05:06:23.494Z,83.43
2022-12-24T05:08:51.134Z,83.57
2022-12-24T05:11:19.132Z,83.47
2022-12-24T05:13:48.109Z,83.72
2022-12-24T05:16:16.057Z,83.75
2022-12-24T05:18:43.721Z,83.51
2022-12-24T05:21:11.365Z,83.68
2022-12-24T05:23:57.012Z,83.41
2022-12-24T05:26:24.870Z,83.70
2022-12-24T05:28:52.458Z,83.16
2022-12-24T05:31:20.101Z,83.96
2022-12-24T05:33:47.729Z,83.94
2022-12-24T05:36:15.781Z,83.52
2022-12-24T05:38:43.620Z,83.85
2022-12-24T05:41:11.236Z,83.56
2022-12-24T05:43:38.841Z,83.71
2022-12-24T05:46:06.543Z,83.90
2022-12-24T05:48:34.529Z,83.46
2022-12-24T05:51:02.420Z,83.44
2022-12-24T05:53:30.094Z,83.43
2022-12-24T05:55:57.691Z,83.52
2022-12-24T05:58:25.319Z,83.69
2022-12-24T06:00:53.712Z,84.07
2022-12-24T06:03:21.754Z,83.76
2022-12-24T06:05:49.353Z,84.07
2022-12-24T06:08:17.004Z,83.98
2022-12-24T06:10:44.608Z,83.20
2022-12-24T06:13:12.599Z,83.68
2022-12-24T06:15:40.266Z,83.50
2022-12-24T06:18:07.867Z,83.89
2022-12-24T06:20:35.546Z,83.83
2022-12-24T06:23:03.603Z,83.86
2022-12-24T06:25:31.586Z,83.94
2022-12-24T06:27:59.350Z,83.71
2022-12-24T06:30:27.016Z,83.57
2022-12-24T06:32:54.630Z,83.58
2022-12-24T06:35:22.305Z,83.81
2022-12-24T06:37:50.184Z,83.46
2022-12-24T06:40:17.830Z,83.75
2022-12-24T06:42:45.408Z,83.46
2022-12-24T06:45:13.433Z,83.68
2022-12-24T06:47:41.008Z,83.67
2022-12-24T06:50:08.982Z,83.36
2022-12-24T06:52:36.861Z,83.84
2022-12-24T06:55:04.459Z,83.60
2022-12-24T06:57:32.510Z,83.58
2022-12-24T07:00:00.205Z,83.87
2022-12-24T07:02:29.651Z,83.91
2022-12-24T07:04:57.520Z,83.46
2022-12-24T07:07:25.589Z,83.94
2022-12-24T07:09:53.209Z,84.02
2022-12-24T07:12:20.855Z,84.00
2022-12-24T07:14:48.826Z,83.62
2022-12-24T07:17:17.024Z,83.59
2022-12-24T07:19:44.810Z,83.93
2022-12-24T07:22:15.771Z,84.04
2022-12-24T07:24:43.639Z,83.93
2022-12-24T07:27:11.614Z,83.88
2022-12-24T07:29:40.816Z,84.06
2022-12-24T07:32:08.504Z,83.54
2022-12-24T07:34:36.124Z,83.45
2022-12-24T07:37:03.801Z,83.53
2022-12-24T07:39:31.633Z,83.96
2022-12-24T07:41:59.290Z,83.47
2022-12-24T07:44:26.987Z,83.79
2022-12-24T07:46:54.669Z,83.55
2022-12-24T07:49:22.350Z,83.73
2022-12-24T07:51:50.421Z,83.65
2022-12-24T07:54:18.191Z,83.55
2022-12-24T07:56:45.838Z,84.08
2022-12-24T07:59:13.499Z,83.26
2022-12-24T08:01:41.306Z,83.50
2022-12-24T08:04:09.573Z,83.46
2022-12-24T08:06:37.564Z,83.13
2022-12-24T08:09:05.158Z,83.50
2022-12-24T08:11:32.799Z,83.71
2022-12-24T08:14:00.474Z,84.00
2022-12-24T08:16:28.603Z,83.94
2022-12-24T08:18:56.613Z,84.03
2022-12-24T08:21:24.315Z,83.61
2022-12-24T08:23:51.908Z,83.02
2022-12-24T08:26:19.536Z,83.26
2022-12-24T08:28:47.575Z,83.44
2022-12-24T08:31:16.357Z,83.33
2022-12-24T08:33:44.432Z,83.50
2022-12-24T08:36:12.169Z,83.56
2022-12-24T08:38:39.869Z,83.38
2022-12-24T08:41:07.876Z,83.37
2022-12-24T08:43:35.829Z,83.29
2022-12-24T08:46:03.502Z,82.97
2022-12-24T08:48:31.275Z,83.48
2022-12-24T08:50:58.935Z,83.50
2022-12-24T08:53:26.595Z,82.80
2022-12-24T08:55:57.261Z,83.23
2022-12-24T08:58:24.946Z,83.28
2022-12-24T09:00:52.630Z,82.99
2022-12-24T09:03:27.104Z,82.87
2022-12-24T09:05:56.310Z,82.92
2022-12-24T09:08:24.005Z,82.70
2022-12-24T09:10:51.676Z,83.25
2022-12-24T09:13:19.377Z,82.80
2022-12-24T09:15:47.043Z,82.95
2022-12-24T09:18:14.998Z,82.66
2022-12-24T09:20:46.729Z,82.24
2022-12-24T09:23:14.677Z,82.64
2022-12-24T09:25:42.493Z,82.58
2022-12-24T09:28:10.351Z,82.37
2022-12-24T09:30:38.641Z,82.81
2022-12-24T09:33:06.359Z,81.79
2022-12-24T09:35:34.604Z,82.64
2022-12-24T09:38:04.096Z,82.23
2022-12-24T09:40:31.805Z,81.90
2022-12-24T09:43:00.122Z,81.89
2022-12-24T09:45:27.916Z,82.27
2022-12-24T09:47:55.717Z,81.78
2022-12-24T09:50:23.451Z,81.69
2022-12-24T09:52:51.116Z,81.08
2022-12-24T09:55:19.379Z,81.44
2022-12-24T09:57:47.233Z,81.33
2022-12-24T10:00:15.392Z,81.27
2022-12-24T10:02:43.387Z,80.99
2022-12-24T10:05:12.278Z,80.82
2022-12-24T10:07:40.489Z,80.52
2022-12-24T10:10:08.557Z,80.89
2022-12-24T10:12:36.397Z,80.57
2022-12-24T10:15:04.435Z,80.63
2022-12-24T10:17:32.126Z,80.76
2022-12-24T10:20:00.672Z,80.36
2022-12-24T10:22:28.904Z,80.56
2022-12-24T10:24:56.701Z,80.70
2022-12-24T10:27:24.488Z,81.01
2022-12-24T10:29:52.158Z,80.68
2022-12-24T10:32:20.438Z,80.89
2022-12-24T10:34:48.381Z,80.45
2022-12-24T10:37:16.123Z,80.39
2022-12-24T10:39:43.832Z,80.01
2022-12-24T10:42:11.744Z,80.44
2022-12-24T10:44:40.875Z,79.87
2022-12-24T10:47:08.590Z,80.09
2022-12-24T10:49:36.463Z,79.32
2022-12-24T10:52:04.164Z,79.23
2022-12-24T10:54:39.383Z,79.25
2022-12-24T10:57:07.747Z,79.78
2022-12-24T10:59:35.460Z,79.48
2022-12-24T11:02:03.408Z,79.84
2022-12-24T11:04:31.292Z,79.70
2022-12-24T11:06:59.447Z,79.90
2022-12-24T11:09:27.695Z,78.64
2022-12-24T11:11:55.494Z,77.71
2022-12-24T11:14:23.392Z,77.26
2022-12-24T11:16:51.302Z,77.25
2022-12-24T11:19:19.011Z,77.11
2022-12-24T11:21:47.647Z,77.28
2022-12-24T11:24:15.592Z,76.97
2022-12-24T11:26:43.490Z,76.90
2022-12-24T11:29:11.784Z,75.96
2022-12-24T11:31:39.944Z,76.14
2022-12-24T11:34:08.152Z,76.63
2022-12-24T11:36:35.990Z,76.56
2022-12-24T11:39:03.942Z,76.51
2022-12-24T11:41:31.988Z,76.99
2022-12-24T11:43:59.759Z,77.95
2022-12-24T11:46:28.141Z,77.90
2022-12-24T11:48:56.051Z,78.70
2022-12-24T11:51:24.010Z,78.77
2022-12-24T11:53:52.285Z,79.58
2022-12-24T11:56:19.984Z,79.17
2022-12-24T11:58:48.351Z,79.70
2022-12-24T12:01:16.364Z,79.36
2022-12-24T12:03:44.219Z,79.59
2022-12-24T12:06:12.110Z,79.65
2022-12-24T12:08:40.126Z,79.88
2022-12-24T12:11:08.555Z,80.25
2022-12-24T12:13:38.268Z,79.58
2022-12-24T12:16:06.139Z,80.02
2022-12-24T12:18:33.937Z,80.07
2022-12-24T12:21:02.209Z,79.58
2022-12-24T12:23:30.787Z,80.11
2022-12-24T12:25:58.747Z,79.67
2022-12-24T12:28:26.496Z,80.03
2022-12-24T12:30:54.493Z,80.06
2022-12-24T12:33:22.428Z,79.25
2022-12-24T12:35:52.545Z,79.35
2022-12-24T12:38:20.564Z,79.71
2022-12-24T12:40:48.378Z,78.93
2022-12-24T12:43:16.308Z,78.74
2022-12-24T12:45:44.214Z,79.02
2022-12-24T12:48:12.453Z,79.37
2022-12-24T12:50:40.418Z,79.27
2022-12-24T12:53:08.192Z,79.46
2022-12-24T12:55:36.011Z,79.89
2022-12-24T12:58:04.336Z,79.32
2022-12-24T13:00:32.735Z,79.82
2022-12-24T13:03:00.664Z,79.90
2022-12-24T13:05:28.659Z,79.21
2022-12-24T13:07:56.548Z,79.44
2022-12-24T13:10:24.293Z,78.86
2022-12-24T13:12:52.629Z,78.56
2022-12-24T13:15:20.441Z,79.20
2022-12-24T13:17:48.385Z,79.37
2022-12-24T13:20:16.138Z,78.96
2022-12-24T13:22:44.242Z,79.18
2022-12-24T13:25:12.849Z,79.40
2022-12-24T13:27:40.597Z,78.83
2022-12-24T13:30:10.225Z,78.75
2022-12-24T13:32:38.275Z,78.55
2022-12-24T13:35:05.999Z,78.68
2022-12-24T13:37:34.258Z,78.64
2022-12-24T13:40:02.125Z,78.51
2022-12-24T13:42:30.500Z,78.20
2022-12-24T13:44:58.383Z,78.42
2022-12-24T13:47:32.225Z,78.27
2022-12-24T13:50:01.036Z,78.30
2022-12-24T13:52:28.883Z,78.04
2022-12-24T13:54:56.609Z,78.81
2022-12-24T13:57:24.455Z,78.20
2022-12-24T13:59:52.336Z,79.10
2022-12-24T14:02:20.814Z,79.04
2022-12-24T14:04:49.177Z,79.46
2022-12-24T14:07:16.940Z,79.19
2022-12-24T14:09:44.889Z,78.77
2022-12-24T14:12:16.399Z,79.19
2022-12-24T14:14:45.597Z,78.99
2022-12-24T14:17:13.624Z,79.15
2022-12-24T14:19:41.503Z,79.74
2022-12-24T14:22:09.342Z,79.41
2022-12-24T14:24:37.225Z,79.94
2022-12-24T14:27:07.000Z,79.46
2022-12-24T14:29:34.840Z,79.15
2022-12-24T14:32:04.542Z,79.69
2022-12-24T14:34:32.566Z,79.80
2022-12-24T14:37:00.426Z,79.27
2022-12-24T14:39:28.873Z,79.55
2022-12-24T14:41:56.648Z,80.03
2022-12-24T14:44:24.397Z,80.22
2022-12-24T14:46:52.897Z,80.57
2022-12-24T14:49:20.661Z,80.67
2022-12-24T14:51:48.813Z,80.98
2022-12-24T14:54:16.742Z,80.90
2022-12-24T14:56:44.540Z,80.82
2022-12-24T14:59:12.337Z,80.97
2022-12-24T15:01:40.432Z,80.74
2022-12-24T15:04:08.882Z,80.96
2022-12-24T15:06:36.697Z,80.64
2022-12-24T15:09:04.597Z,81.34
2022-12-24T15:11:32.743Z,81.21
2022-12-24T15:14:00.833Z,81.01
2022-12-24T15:16:29.473Z,81.54
2022-12-24T15:18:57.265Z,81.03
2022-12-24T15:21:24.988Z,81.32
2022-12-24T15:23:52.968Z,81.50
2022-12-24T15:26:20.832Z,81.61
2022-12-24T15:28:49.342Z,82.01
2022-12-24T15:31:17.188Z,81.90
2022-12-24T15:33:45.682Z,82.12
2022-12-24T15:36:13.427Z,82.20
2022-12-24T15:38:41.208Z,82.43
2022-12-24T15:41:09.585Z,82.05
2022-12-24T15:43:37.276Z,81.97
2022-12-24T15:46:05.231Z,81.96
2022-12-24T15:48:33.171Z,81.37
2022-12-24T15:51:01.149Z,81.36
2022-12-24T15:53:29.184Z,81.08
2022-12-24T15:55:57.505Z,81.66
2022-12-24T15:58:25.575Z,81.46
2022-12-24T16:00:53.490Z,81.52
2022-12-24T16:03:23.664Z,81.71
2022-12-24T16:05:52.334Z,81.62
2022-12-24T16:08:20.420Z,81.88
2022-12-24T16:10:48.170Z,81.28
2022-12-24T16:13:16.087Z,81.43
2022-12-24T16:15:44.213Z,81.93
2022-12-24T16:18:12.743Z,81.67
2022-12-24T16:20:40.587Z,81.44
2022-12-24T16:23:08.376Z,81.59
2022-12-24T16:25:36.209Z,81.39
2022-12-24T16:28:09.895Z,81.68
2022-12-24T16:30:40.268Z,82.23
2022-12-24T16:33:08.076Z,81.88
2022-12-24T16:35:39.451Z,82.30
2022-12-24T16:38:07.856Z,82.40
2022-12-24T16:40:35.734Z,82.38
2022-12-24T16:43:21.489Z,82.40
2022-12-24T16:45:49.507Z,81.93
2022-12-24T16:48:17.929Z,82.26
2022-12-24T16:50:45.775Z,82.66
2022-12-24T16:53:17.545Z,82.68
2022-12-24T16:55:46.131Z,82.55
2022-12-24T16:58:16.083Z,82.85
2022-12-24T17:00:44.965Z,82.77
2022-12-24T17:03:12.914Z,83.05
2022-12-24T17:05:40.903Z,82.82
2022-12-24T17:08:09.178Z,83.00
2022-12-24T17:10:37.167Z,83.26
2022-12-24T17:13:05.092Z,83.72
2022-12-24T17:15:32.943Z,83.26
2022-12-24T17:18:00.990Z,83.94
2022-12-24T17:20:29.417Z,83.70
2022-12-24T17:22:57.507Z,83.58
2022-12-24T17:25:25.359Z,83.90
2022-12-24T17:27:53.234Z,84.08
2022-12-24T17:30:21.142Z,84.09
2022-12-24T17:32:49.518Z,84.13
2022-12-24T17:35:17.899Z,84.66
2022-12-24T17:37:45.762Z,84.15
2022-12-24T17:40:13.606Z,84.56
2022-12-24T17:42:41.904Z,84.54
2022-12-24T17:45:10.192Z,84.59
2022-12-24T17:47:38.380Z,84.78
2022-12-24T17:50:06.894Z,85.36
2022-12-24T17:52:35.026Z,84.84
2022-12-24T17:55:02.905Z,84.82
2022-12-24T17:57:30.952Z,84.40
2022-12-24T17:59:58.992Z,84.82
2022-12-24T18:02:26.919Z,84.88
2022-12-24T18:04:55.364Z,84.77
2022-12-24T18:07:23.302Z,84.74
2022-12-24T18:09:51.679Z,85.13
2022-12-24T18:12:20.106Z,84.89
2022-12-24T18:14:47.979Z,84.98
2022-12-24T18:17:15.722Z,84.79
2022-12-24T18:19:43.627Z,84.82
2022-12-24T18:22:11.898Z,84.98
2022-12-24T18:24:39.710Z,84.92
2022-12-24T18:27:07.891Z,85.08
2022-12-24T18:29:39.925Z,84.95
2022-12-24T18:32:07.693Z,84.67
2022-12-24T18:34:35.797Z,84.93
2022-12-24T18:37:03.725Z,85.17
2022-12-24T18:39:31.537Z,84.89
2022-12-24T18:41:59.479Z,85.20
2022-12-24T18:44:27.246Z,85.29
2022-12-24T18:46:55.381Z,85.01
2022-12-24T18:49:23.856Z,85.29
2022-12-24T18:51:51.688Z,84.77
2022-12-24T18:54:19.572Z,84.55
2022-12-24T18:56:47.484Z,84.60
2022-12-24T18:59:15.585Z,84.25
2022-12-24T19:01:43.866Z,84.34
2022-12-24T19:04:13.613Z,84.06
2022-12-24T19:06:43.585Z,84.30
2022-12-24T19:09:13.582Z,84.27
2022-12-24T19:11:42.028Z,84.15
2022-12-24T19:14:09.977Z,84.40
2022-12-24T19:16:38.013Z,84.45
2022-12-24T19:19:05.988Z,84.76
2022-12-24T19:21:33.840Z,84.79
2022-12-24T19:24:02.343Z,84.40
2022-12-24T19:26:30.202Z,84.56
2022-12-24T19:28:58.126Z,84.14
2022-12-24T19:31:26.141Z,84.61
2022-12-24T19:33:54.460Z,84.50
2022-12-24T19:36:22.923Z,84.79
2022-12-24T19:38:51.373Z,84.69
2022-12-24T19:41:19.256Z,84.54
2022-12-24T19:43:46.953Z,84.71
2022-12-24T19:46:15.447Z,84.51
2022-12-24T19:48:43.696Z,84.51
2022-12-24T19:51:11.824Z,84.39
2022-12-24T19:53:39.619Z,84.81
2022-12-24T19:56:08.948Z,84.51
2022-12-24T19:58:36.901Z,84.54
2022-12-24T20:01:09.549Z,84.45
2022-12-24T20:03:40.863Z,84.24
2022-12-24T20:06:08.761Z,84.25
2022-12-24T20:08:36.622Z,84.54
2022-12-24T20:11:04.520Z,84.68
2022-12-24T20:13:32.590Z,84.21
2022-12-24T20:16:00.630Z,83.81
2022-12-24T20:18:28.629Z,84.06
2022-12-24T20:20:56.683Z,84.42
2022-12-24T20:23:24.455Z,84.07
2022-12-24T20:25:52.616Z,84.22
2022-12-24T20:28:20.722Z,84.00
2022-12-24T20:30:48.541Z,83.81
2022-12-24T20:33:16.450Z,83.64
2022-12-24T20:35:44.611Z,83.79
2022-12-24T20:38:12.899Z,84.13
2022-12-24T20:40:41.117Z,83.54
2022-12-24T20:43:08.905Z,84.11
2022-12-24T20:45:36.763Z,83.75
2022-12-24T20:48:04.682Z,84.24
2022-12-24T20:50:32.864Z,83.69
2022-12-24T20:53:01.067Z,84.45
2022-12-24T20:55:29.013Z,84.26
2022-12-24T20:57:56.901Z,84.04
2022-12-24T21:00:25.401Z,83.90
2022-12-24T21:02:54.249Z,83.61
2022-12-24T21:05:22.164Z,84.02
2022-12-24T21:07:49.985Z,84.43
2022-12-24T21:10:17.872Z,83.95
2022-12-24T21:12:52.163Z,84.04
2022-12-24T21:15:20.714Z,83.49
2022-12-24T21:17:48.898Z,83.84
2022-12-24T21:20:16.677Z,83.65
2022-12-24T21:22:45.036Z,83.55
2022-12-24T21:25:12.948Z,84.01
2022-12-24T21:27:41.338Z,83.85
2022-12-24T21:30:09.489Z,83.97
2022-12-24T21:32:37.314Z,83.80
2022-12-24T21:35:05.233Z,83.97
2022-12-24T21:37:33.123Z,84.13
2022-12-24T21:40:01.459Z,83.95
2022-12-24T21:42:29.322Z,84.10
2022-12-24T21:44:57.793Z,83.99
2022-12-24T21:47:25.583Z,84.15
2022-12-24T21:50:11.078Z,84.00
2022-12-24T21:52:39.227Z,84.10
2022-12-24T21:55:05.956Z,84.56
2022-12-24T21:57:51.256Z,83.97
2022-12-24T22:00:27.558Z,83.98
2022-12-24T22:02:55.842Z,84.05
2022-12-24T22:05:24.840Z,83.99
2022-12-24T22:08:09.886Z,83.90
2022-12-24T22:10:55.272Z,84.28
2022-12-24T22:13:23.708Z,84.76
2022-12-24T22:15:51.471Z,84.00
2022-12-24T22:18:19.312Z,84.44
2022-12-24T22:20:47.188Z,84.21
2022-12-24T22:23:15.287Z,84.30
2022-12-24T22:25:44.957Z,83.86
2022-12-24T22:28:12.797Z,84.51
2022-12-24T22:30:40.726Z,83.85
2022-12-24T22:33:08.663Z,84.05
2022-12-24T22:35:37.001Z,84.14
2022-12-24T22:38:05.026Z,84.13
2022-12-24T22:40:32.819Z,84.49
2022-12-24T22:43:00.688Z,84.65
2022-12-24T22:45:28.499Z,84.31
2022-12-24T22:47:56.852Z,84.63
2022-12-24T22:50:24.910Z,84.33
2022-12-24T22:52:54.139Z,84.20
2022-12-24T22:55:21.978Z,84.10
2022-12-24T22:57:49.868Z,84.35
2022-12-24T23:00:18.691Z,84.39
2022-12-24T23:02:46.740Z,84.42
2022-12-24T23:05:14.879Z,84.39
2022-12-24T23:07:43.120Z,84.33
2022-12-24T23:10:10.955Z,84.60
2022-12-24T23:12:56.052Z,84.64
2022-12-24T23:15:23.756Z,84.46
2022-12-24T23:17:51.544Z,84.60
2022-12-24T23:20:19.621Z,84.83
2022-12-24T23:22:47.693Z,84.86
2022-12-24T23:25:15.725Z,84.79
2022-12-24T23:27:45.058Z,84.98
2022-12-24T23:30:12.813Z,84.88
2022-12-24T23:32:40.534Z,85.16
2022-12-24T23:35:08.415Z,85.35
2022-12-24T23:37:36.556Z,85.13
2022-12-24T23:40:04.621Z,85.59
2022-12-24T23:42:32.526Z,85.39
2022-12-24T23:45:00.340Z,85.44
2022-12-24T23:47:28.044Z,84.87
2022-12-24T23:49:56.509Z,85.80
2022-12-24T23:52:24.440Z,84.95
2022-12-24T23:54:52.205Z,85.43
2022-12-24T23:57:20.016Z,85.46
2022-12-24T23:59:47.977Z,85.59
